Time;durP1;ratioP1;P1;durP2;ratioP2;P2;SDS_P1;SDS_P2;PMS_P1;PMS_P2;Temp;Humidity;BMP_temperature;BMP_pressure;BME280_temperature;BME280_humidity;BME280_pressure;Samples;Min_cycle;Max_cycle;Signal;HPM_P1;HPM_P2
2023/07/08 00:01:41;;;;;;;;;;;18.70;99.90;;;;;;21015267;28;20286;-74
2023/07/08 00:11:42;;;;;;;;;;;18.90;99.90;;;;;;20978236;28;19923;-74
2023/07/08 00:21:42;;;;;;;;;;;19.00;99.90;;;;;;21013267;28;19920;-74
2023/07/08 00:31:43;;;;;;;;;;;18.90;99.90;;;;;;21018708;28;19920;-74
2023/07/08 00:41:44;;;;;;;;;;;17.60;99.90;;;;;;20964500;28;19924;-74
2023/07/08 00:51:45;;;;;;;;;;;18.00;99.90;;;;;;20977704;28;19920;-74
2023/07/08 01:01:46;;;;;;;;;;;18.60;99.90;;;;;;20939765;28;19920;-74
2023/07/08 01:11:47;;;;;;;;;;;17.80;99.90;;;;;;20990545;28;19916;-74
2023/07/08 01:21:54;;;;;;;;;;;18.30;99.90;;;;;;20977558;28;19959;-74
2023/07/08 01:31:55;;;;;;;;;;;18.40;99.90;;;;;;20983975;28;19970;-74
2023/07/08 01:41:56;;;;;;;;;;;19.10;99.90;;;;;;20945070;28;19927;-74
2023/07/08 01:51:57;;;;;;;;;;;17.90;99.90;;;;;;20949690;28;19916;-74
2023/07/08 02:01:58;;;;;;;;;;;18.00;99.90;;;;;;20989860;28;19982;-74
2023/07/08 02:11:58;;;;;;;;;;;17.80;99.90;;;;;;20978765;28;19920;-74
2023/07/08 02:22:00;;;;;;;;;;;18.00;99.90;;;;;;20982984;28;19979;-74
2023/07/08 02:32:00;;;;;;;;;;;17.80;99.90;;;;;;20893407;28;20398;-74
2023/07/08 02:42:01;;;;;;;;;;;17.90;99.90;;;;;;20910283;28;20051;-74
2023/07/08 02:52:02;;;;;;;;;;;18.10;99.90;;;;;;20909147;28;19917;-74
2023/07/08 03:02:03;;;;;;;;;;;17.70;99.90;;;;;;20891025;28;19921;-74
2023/07/08 03:12:05;;;;;;;;;;;17.50;99.90;;;;;;20882570;28;19916;-74
2023/07/08 03:22:07;;;;;;;;;;;17.40;99.90;;;;;;20890212;28;20353;-74
2023/07/08 03:32:10;;;;;;;;;;;17.40;99.90;;;;;;20907474;28;19924;-74
2023/07/08 03:42:10;;;;;;;;;;;17.50;99.90;;;;;;20961557;28;20353;-75
2023/07/08 03:52:15;;;;;;;;;;;17.40;99.90;;;;;;20919193;28;19917;-74
2023/07/08 04:02:16;;;;;;;;;;;17.30;99.90;;;;;;20910182;28;19932;-74
2023/07/08 04:12:17;;;;;;;;;;;17.50;99.90;;;;;;20893935;28;19982;-75
2023/07/08 04:22:18;;;;;;;;;;;17.30;99.90;;;;;;20920669;28;19965;-75
2023/07/08 04:32:18;;;;;;;;;;;17.00;99.90;;;;;;20919917;28;19916;-75
2023/07/08 04:42:19;;;;;;;;;;;17.70;99.90;;;;;;20911715;28;19936;-75
2023/07/08 04:52:20;;;;;;;;;;;17.10;99.90;;;;;;20915817;28;19983;-75
2023/07/08 05:02:20;;;;;;;;;;;17.00;99.90;;;;;;20917849;28;20391;-74
2023/07/08 05:12:21;;;;;;;;;;;17.00;99.90;;;;;;20916468;28;20091;-75
2023/07/08 05:22:25;;;;;;;;;;;17.10;99.90;;;;;;20903945;28;19944;-75
2023/07/08 05:32:26;;;;;;;;;;;17.10;99.90;;;;;;20915493;28;19917;-75
2023/07/08 05:42:27;;;;;;;;;;;17.20;99.90;;;;;;20911999;28;20390;-75
2023/07/08 05:52:28;;;;;;;;;;;17.00;99.90;;;;;;20895716;28;19924;-75
2023/07/08 06:02:28;;;;;;;;;;;17.00;99.90;;;;;;20892946;28;20448;-75
2023/07/08 06:12:30;;;;;;;;;;;17.10;99.90;;;;;;20893192;28;19927;-75
2023/07/08 06:22:30;;;;;;;;;;;17.00;99.90;;;;;;20886882;28;19965;-75
2023/07/08 06:32:31;;;;;;;;;;;17.10;99.90;;;;;;20905995;28;20451;-75
2023/07/08 06:42:32;;;;;;;;;;;17.10;99.90;;;;;;20895402;28;20417;-75
2023/07/08 06:52:53;;;;;;;;;;;17.10;99.90;;;;;;20902188;28;19935;-75
2023/07/08 07:02:53;;;;;;;;;;;17.20;99.90;;;;;;20894225;28;20019;-74
2023/07/08 07:12:54;;;;;;;;;;;17.30;99.90;;;;;;20891171;28;19917;-75
2023/07/08 07:22:55;;;;;;;;;;;17.30;99.90;;;;;;20904070;28;20015;-75
2023/07/08 07:32:58;;;;;;;;;;;17.50;99.90;;;;;;20907274;28;20467;-75
2023/07/08 07:42:59;;;;;;;;;;;17.70;99.90;;;;;;20897965;28;19919;-74
2023/07/08 07:52:59;;;;;;;;;;;17.90;99.90;;;;;;20927803;28;20063;-75
2023/07/08 08:03:00;;;;;;;;;;;18.00;99.90;;;;;;20988325;28;19994;-75
2023/07/08 08:13:01;;;;;;;;;;;18.30;99.90;;;;;;20943363;28;20311;-75
2023/07/08 08:23:02;;;;;;;;;;;18.50;99.90;;;;;;20926591;28;20279;-75
2023/07/08 08:33:03;;;;;;;;;;;18.60;99.90;;;;;;20947737;28;19924;-75
2023/07/08 08:43:05;;;;;;;;;;;18.60;99.90;;;;;;20938459;28;20568;-74
2023/07/08 08:53:10;;;;;;;;;;;18.70;99.90;;;;;;20972212;28;19917;-74
2023/07/08 09:03:14;;;;;;;;;;;18.50;99.90;;;;;;20917337;28;20327;-75
2023/07/08 09:13:32;;;;;;;;;;;18.70;99.90;;;;;;20917735;28;19983;-75
2023/07/08 09:23:34;;;;;;;;;;;18.80;99.90;;;;;;20915871;28;19913;-75
2023/07/08 09:33:38;;;;;;;;;;;18.90;99.90;;;;;;20973702;28;20373;-75
2023/07/08 09:43:38;;;;;;;;;;;19.10;99.90;;;;;;20967575;28;19912;-75
2023/07/08 09:53:39;;;;;;;;;;;19.30;99.90;;;;;;20913720;28;19917;-75
2023/07/08 10:03:40;;;;;;;;;;;19.30;99.90;;;;;;20913640;28;19920;-75
2023/07/08 10:13:43;;;;;;;;;;;19.50;99.90;;;;;;20913818;28;19966;-75
2023/07/08 10:23:49;;;;;;;;;;;19.60;99.90;;;;;;20904091;28;19971;-76
2023/07/08 10:33:50;;;;;;;;;;;19.60;99.90;;;;;;20886611;28;19916;-74
2023/07/08 10:44:09;;;;;;;;;;;20.20;99.90;;;;;;20948284;28;20459;-74
2023/07/08 10:54:28;;;;;;;;;;;21.30;99.90;;;;;;20959424;28;19920;-78
2023/07/08 11:04:37;;;;;;;;;;;21.50;99.90;;;;;;20912756;28;19919;-76
2023/07/08 11:14:54;;;;;;;;;;;21.90;99.90;;;;;;20904950;28;19916;-77
2023/07/08 11:24:55;;;;;;;;;;;23.00;99.90;;;;;;20901573;28;19913;-75
2023/07/08 11:34:57;;;;;;;;;;;22.30;99.90;;;;;;20910976;28;20047;-75
2023/07/08 11:44:59;;;;;;;;;;;22.50;99.90;;;;;;20898464;28;19944;-76
2023/07/08 11:55:03;;;;;;;;;;;22.20;99.90;;;;;;20894246;28;19917;-75
2023/07/08 12:05:13;;;;;;;;;;;22.10;99.90;;;;;;20897745;28;19913;-76
2023/07/08 12:15:20;;;;;;;;;;;22.30;99.90;;;;;;20905548;28;20299;-75
2023/07/08 12:25:22;;;;;;;;;;;22.80;99.90;;;;;;20966930;28;20011;-75
2023/07/08 12:35:25;;;;;;;;;;;23.50;99.90;;;;;;20931379;28;20267;-75
2023/07/08 12:45:26;;;;;;;;;;;23.80;99.90;;;;;;20919469;28;19913;-75
2023/07/08 12:55:27;;;;;;;;;;;24.60;99.90;;;;;;20918969;28;19921;-75
2023/07/08 13:05:27;;;;;;;;;;;26.80;99.90;;;;;;20915579;28;19927;-75
2023/07/08 13:15:32;;;;;;;;;;;27.00;99.90;;;;;;20918833;28;19923;-75
2023/07/08 13:25:37;;;;;;;;;;;26.80;99.90;;;;;;20920505;28;20386;-76
2023/07/08 13:35:39;;;;;;;;;;;27.40;99.90;;;;;;20915307;28;19917;-76
2023/07/08 13:45:47;;;;;;;;;;;28.30;99.90;;;;;;20907995;28;20012;-76
2023/07/08 13:55:48;;;;;;;;;;;27.70;99.90;;;;;;20907120;28;20303;-75
2023/07/08 14:05:49;;;;;;;;;;;27.40;99.90;;;;;;20906854;28;19920;-75
2023/07/08 14:15:50;;;;;;;;;;;27.40;99.90;;;;;;20912221;28;19960;-75
2023/07/08 14:25:51;;;;;;;;;;;28.10;99.90;;;;;;20887552;28;20539;-75
2023/07/08 14:35:51;;;;;;;;;;;28.50;99.90;;;;;;20904923;28;19917;-77
2023/07/08 14:45:54;;;;;;;;;;;29.30;99.90;;;;;;20895551;28;20291;-77
2023/07/08 14:55:57;;;;;;;;;;;29.60;99.90;;;;;;20903943;28;20208;-75
2023/07/08 15:05:57;;;;;;;;;;;29.70;99.90;;;;;;20966234;28;19916;-76
2023/07/08 15:15:58;;;;;;;;;;;30.30;99.90;;;;;;20989392;28;20370;-75
2023/07/08 15:25:59;;;;;;;;;;;29.70;99.90;;;;;;20992264;28;20062;-75
2023/07/08 15:35:59;;;;;;;;;;;29.50;99.90;;;;;;20907162;28;19932;-75
2023/07/08 15:46:01;;;;;;;;;;;29.90;99.90;;;;;;20899730;28;19913;-75
2023/07/08 15:56:03;;;;;;;;;;;29.40;99.90;;;;;;20901998;28;19931;-75
2023/07/08 16:06:03;;;;;;;;;;;29.80;99.90;;;;;;20901855;28;19912;-75
2023/07/08 16:16:04;;;;;;;;;;;29.50;99.90;;;;;;20906179;28;19916;-75
2023/07/08 16:26:05;;;;;;;;;;;29.50;99.90;;;;;;20908109;28;19913;-75
2023/07/08 16:36:10;;;;;;;;;;;29.50;99.90;;;;;;20916859;28;19917;-75
2023/07/08 16:46:11;;;;;;;;;;;28.90;99.90;;;;;;20919163;28;20389;-76
2023/07/08 16:56:13;;;;;;;;;;;28.80;99.90;;;;;;20928613;28;19943;-75
2023/07/08 17:06:13;;;;;;;;;;;28.80;99.90;;;;;;20929663;28;19919;-76
2023/07/08 17:16:16;;;;;;;;;;;28.60;99.90;;;;;;20887109;28;20570;-76
2023/07/08 17:26:17;;;;;;;;;;;28.60;99.90;;;;;;20910766;28;19917;-77
2023/07/08 17:36:27;;;;;;;;;;;27.70;99.90;;;;;;20903867;28;19917;-77
2023/07/08 17:46:28;;;;;;;;;;;27.30;99.90;;;;;;20913797;28;19920;-76
2023/07/08 17:56:37;;;;;;;;;;;26.80;99.90;;;;;;20992507;28;19916;-77
2023/07/08 18:06:38;;;;;;;;;;;27.20;99.90;;;;;;20902526;28;19912;-77
2023/07/08 18:16:38;;;;;;;;;;;28.10;99.90;;;;;;20948565;28;19916;-76
2023/07/08 18:26:39;;;;;;;;;;;28.60;99.90;;;;;;20998028;28;19958;-77
2023/07/08 18:36:41;;;;;;;;;;;29.50;99.90;;;;;;20922258;28;19924;-78
2023/07/08 18:46:41;;;;;;;;;;;26.80;99.90;;;;;;20967947;28;19912;-78
2023/07/08 18:56:42;;;;;;;;;;;24.90;99.90;;;;;;20993415;28;19942;-78
2023/07/08 19:06:43;;;;;;;;;;;24.10;99.90;;;;;;20999051;28;20000;-78
2023/07/08 19:16:44;;;;;;;;;;;23.90;99.90;;;;;;21006168;28;19962;-78
2023/07/08 19:26:44;;;;;;;;;;;23.20;99.90;;;;;;20944332;28;19912;-76
2023/07/08 19:36:45;;;;;;;;;;;22.30;99.90;;;;;;20963532;28;19999;-76
2023/07/08 19:46:46;;;;;;;;;;;22.00;99.90;;;;;;20990186;28;19913;-75
2023/07/08 19:56:46;;;;;;;;;;;22.00;99.90;;;;;;20953637;28;19916;-76
2023/07/08 20:06:47;;;;;;;;;;;21.50;99.90;;;;;;20979085;28;19916;-77
2023/07/08 20:16:48;;;;;;;;;;;21.50;99.90;;;;;;20969188;28;19916;-76
2023/07/08 20:26:49;;;;;;;;;;;20.90;99.90;;;;;;20920605;28;20425;-76
2023/07/08 20:36:49;;;;;;;;;;;20.60;99.90;;;;;;20920182;28;19924;-75
2023/07/08 20:46:50;;;;;;;;;;;20.40;99.90;;;;;;20920317;28;19920;-76
2023/07/08 20:56:51;;;;;;;;;;;20.10;99.90;;;;;;20900030;28;19916;-76
2023/07/08 21:06:53;;;;;;;;;;;20.20;99.90;;;;;;20919121;28;19920;-76
2023/07/08 21:16:54;;;;;;;;;;;20.30;99.90;;;;;;20917932;28;20295;-77
2023/07/08 21:26:54;;;;;;;;;;;20.30;99.90;;;;;;20911476;28;19966;-74
2023/07/08 21:36:57;;;;;;;;;;;19.90;99.90;;;;;;20910949;28;20497;-75
2023/07/08 21:46:58;;;;;;;;;;;19.70;99.90;;;;;;20956364;28;19951;-76
2023/07/08 21:56:58;;;;;;;;;;;19.60;99.90;;;;;;20889059;28;19917;-77
2023/07/08 22:07:01;;;;;;;;;;;20.00;99.90;;;;;;20910490;28;19920;-77
2023/07/08 22:17:02;;;;;;;;;;;19.60;99.90;;;;;;20895144;28;19924;-75
2023/07/08 22:27:03;;;;;;;;;;;19.40;99.90;;;;;;20942102;28;19919;-76
2023/07/08 22:37:07;;;;;;;;;;;19.10;99.90;;;;;;20905532;28;19944;-76
2023/07/08 22:47:16;;;;;;;;;;;19.50;99.90;;;;;;20885187;28;20295;-76
2023/07/08 22:57:16;;;;;;;;;;;19.40;99.90;;;;;;20874626;28;19924;-76
2023/07/08 23:07:18;;;;;;;;;;;19.10;99.90;;;;;;20904052;28;19913;-76
2023/07/08 23:17:19;;;;;;;;;;;18.90;99.90;;;;;;20911602;28;19935;-76
2023/07/08 23:27:22;;;;;;;;;;;18.60;99.90;;;;;;20890452;28;20388;-75
2023/07/08 23:37:29;;;;;;;;;;;18.90;99.90;;;;;;20908284;28;19924;-76
2023/07/08 23:47:30;;;;;;;;;;;18.60;99.90;;;;;;20907781;28;19913;-75
2023/07/08 23:57:31;;;;;;;;;;;18.50;99.90;;;;;;20942079;22;19948;-75
